Time;durP1;ratioP1;P1;durP2;ratioP2;P2;SDS_P1;SDS_P2;PMS_P1;PMS_P2;Temp;Humidity;BMP_temperature;BMP_pressure;BME280_temperature;BME280_humidity;BME280_pressure;Samples;Min_cycle;Max_cycle;Signal;HPM_P1;HPM_P2
2022/05/01 00:00:48;;;;;;;0.30;0.30;;;7.80;99.90;;;;;;4992787;28;20193;-91
2022/05/01 00:03:35;;;;;;;0.30;0.30;;;7.80;99.90;;;;;;4992777;28;20742;-89
2022/05/01 00:06:01;;;;;;;0.20;0.20;;;7.70;99.90;;;;;;4985101;28;20645;-89
2022/05/01 00:08:27;;;;;;;0.20;0.20;;;7.70;99.90;;;;;;4990394;28;21101;-88
2022/05/01 00:10:54;;;;;;;0.20;0.20;;;7.80;99.90;;;;;;4993453;28;20462;-89
2022/05/01 00:13:21;;;;;;;0.30;0.30;;;7.90;99.90;;;;;;4991941;28;20444;-89
2022/05/01 00:15:46;;;;;;;0.20;0.20;;;7.80;99.90;;;;;;4986712;28;20452;-88
2022/05/01 00:18:12;;;;;;;0.20;0.20;;;7.90;99.90;;;;;;4990321;28;20832;-88
2022/05/01 00:20:37;;;;;;;0.20;0.20;;;7.90;99.90;;;;;;4990395;28;20555;-88
2022/05/01 00:23:03;;;;;;;0.30;0.30;;;7.70;99.90;;;;;;4990476;28;20201;-88
2022/05/01 00:25:29;;;;;;;0.20;0.20;;;7.80;99.90;;;;;;4981199;28;20535;-88
2022/05/01 00:27:55;;;;;;;0.30;0.30;;;7.80;99.90;;;;;;4982487;28;20665;-88
2022/05/01 00:30:20;;;;;;;0.30;0.30;;;7.90;99.90;;;;;;4990952;28;20189;-89
2022/05/01 00:38:14;;;;;;;0.27;0.27;;;7.80;99.90;;;;;;4991263;28;20442;-89
2022/05/01 00:40:39;;;;;;;0.30;0.30;;;7.80;99.90;;;;;;4981733;28;20444;-88
2022/05/01 00:43:05;;;;;;;0.30;0.30;;;7.70;99.90;;;;;;4985244;28;20566;-89
2022/05/01 00:45:32;;;;;;;0.30;0.30;;;7.70;99.90;;;;;;4989932;28;20193;-88
2022/05/01 00:47:57;;;;;;;0.30;0.30;;;7.70;99.90;;;;;;4988255;28;20186;-90
2022/05/01 00:50:23;;;;;;;0.30;0.30;;;7.70;99.90;;;;;;4988059;28;20485;-89
2022/05/01 00:52:50;;;;;;;0.30;0.30;;;7.70;99.90;;;;;;4980758;28;20196;-88
2022/05/01 00:55:16;;;;;;;0.30;0.30;;;7.60;99.90;;;;;;4986339;28;20449;-88
2022/05/01 00:57:42;;;;;;;0.30;0.30;;;7.60;99.90;;;;;;4989059;28;20970;-89
2022/05/01 01:00:08;;;;;;;0.30;0.30;;;7.50;99.90;;;;;;4992258;28;20256;-88
2022/05/01 01:02:34;;;;;;;0.30;0.30;;;7.50;99.90;;;;;;4993017;28;20433;-88
2022/05/01 01:04:59;;;;;;;0.30;0.30;;;7.50;99.90;;;;;;4991746;28;20448;-88
2022/05/01 01:07:27;;;;;;;0.30;0.30;;;7.30;99.90;;;;;;4993061;28;20185;-88
2022/05/01 01:09:53;;;;;;;0.20;0.20;;;7.40;99.90;;;;;;4989043;28;20225;-90
2022/05/01 01:15:10;;;;;;;0.27;0.27;;;7.30;99.90;;;;;;4991931;28;20227;-88
2022/05/01 01:17:38;;;;;;;0.20;0.20;;;7.20;99.90;;;;;;4991604;28;20445;-88
2022/05/01 01:20:15;;;;;;;0.30;0.30;;;7.30;99.90;;;;;;4991000;28;20885;-89
2022/05/01 01:22:47;;;;;;;0.30;0.30;;;7.30;99.90;;;;;;4993302;28;20504;-90
2022/05/01 01:25:13;;;;;;;0.30;0.30;;;7.20;99.90;;;;;;4990832;28;20527;-88
2022/05/01 01:27:39;;;;;;;0.27;0.27;;;7.20;99.90;;;;;;4983785;28;20500;-89
2022/05/01 01:32:50;;;;;;;0.30;0.30;;;7.30;99.90;;;;;;4991831;28;20200;-88
2022/05/01 01:35:21;;;;;;;0.30;0.30;;;7.40;99.90;;;;;;4990658;28;21314;-88
2022/05/01 01:37:49;;;;;;;0.27;0.27;;;7.30;99.90;;;;;;4988088;28;20842;-88
2022/05/01 01:40:23;;;;;;;0.20;0.20;;;7.40;99.90;;;;;;4989013;28;20459;-87
2022/05/01 01:42:50;;;;;;;0.30;0.30;;;7.30;99.90;;;;;;4987568;28;20448;-88
2022/05/01 01:45:16;;;;;;;0.30;0.30;;;7.30;99.90;;;;;;4986006;28;20558;-88
2022/05/01 01:47:49;;;;;;;0.30;0.30;;;7.40;99.90;;;;;;4990313;28;20532;-87
2022/05/01 01:50:18;;;;;;;0.30;0.30;;;7.40;99.90;;;;;;4989807;28;20520;-87
2022/05/01 01:52:47;;;;;;;0.30;0.30;;;7.30;99.90;;;;;;4986304;28;20483;-87
2022/05/01 01:55:17;;;;;;;0.20;0.20;;;7.40;99.90;;;;;;4988525;28;20467;-87
2022/05/01 01:57:44;;;;;;;0.30;0.30;;;7.30;99.90;;;;;;4986477;28;20534;-89
2022/05/01 02:00:10;;;;;;;0.30;0.30;;;7.30;99.90;;;;;;4984111;28;20479;-86
2022/05/01 02:02:36;;;;;;;0.20;0.20;;;7.20;99.90;;;;;;4990898;28;20436;-88
2022/05/01 02:05:02;;;;;;;0.30;0.30;;;7.30;99.90;;;;;;4991377;28;21140;-88
2022/05/01 02:07:30;;;;;;;0.30;0.30;;;7.30;99.90;;;;;;4987724;28;20188;-87
2022/05/01 02:09:56;;;;;;;0.37;0.37;;;7.20;99.90;;;;;;4990758;28;20274;-87
2022/05/01 02:12:22;;;;;;;0.30;0.30;;;7.20;99.90;;;;;;4982781;28;20449;-88
2022/05/01 02:14:47;;;;;;;0.30;0.30;;;7.20;99.90;;;;;;4985092;28;20205;-88
2022/05/01 02:17:13;;;;;;;0.30;0.30;;;7.20;99.90;;;;;;4990581;28;20296;-88
2022/05/01 02:19:38;;;;;;;0.30;0.30;;;7.30;99.90;;;;;;4986936;28;20379;-88
2022/05/01 02:22:04;;;;;;;0.30;0.30;;;7.30;99.90;;;;;;4991656;28;20197;-87
2022/05/01 02:24:31;;;;;;;0.30;0.30;;;7.30;99.90;;;;;;4990448;28;20542;-87
2022/05/01 02:26:56;;;;;;;0.40;0.40;;;7.40;99.90;;;;;;4989818;28;20189;-88
2022/05/01 02:29:22;;;;;;;0.30;0.30;;;7.40;99.90;;;;;;4987282;28;20514;-87
2022/05/01 02:31:53;;;;;;;0.30;0.30;;;7.40;99.90;;;;;;4989916;28;20189;-87
2022/05/01 02:34:20;;;;;;;0.30;0.30;;;7.40;99.90;;;;;;4989080;28;20195;-88
2022/05/01 02:36:46;;;;;;;0.27;0.27;;;7.40;99.90;;;;;;4985598;28;22448;-87
2022/05/01 02:39:13;;;;;;;0.30;0.30;;;7.40;99.90;;;;;;4990667;28;20452;-87
2022/05/01 02:41:39;;;;;;;0.20;0.20;;;7.40;99.90;;;;;;4990115;28;20506;-88
2022/05/01 02:44:04;;;;;;;0.27;0.27;;;7.30;99.90;;;;;;4985175;28;20436;-87
2022/05/01 02:46:32;;;;;;;0.20;0.20;;;7.40;99.90;;;;;;4984957;28;20657;-87
2022/05/01 02:48:58;;;;;;;0.30;0.30;;;7.30;99.90;;;;;;4986646;28;20220;-85
2022/05/01 02:51:23;;;;;;;0.30;0.30;;;7.30;99.90;;;;;;4981533;28;21000;-87
2022/05/01 02:53:49;;;;;;;0.30;0.30;;;7.30;99.90;;;;;;4983434;28;20455;-87
2022/05/01 02:56:14;;;;;;;0.30;0.30;;;7.40;99.90;;;;;;4990747;28;20316;-88
2022/05/01 02:58:40;;;;;;;0.23;0.23;;;7.40;99.90;;;;;;4983859;28;20185;-87
2022/05/01 03:01:05;;;;;;;0.30;0.30;;;7.40;99.90;;;;;;4989261;28;20189;-87
2022/05/01 03:03:31;;;;;;;0.30;0.30;;;7.40;99.90;;;;;;4987532;28;20197;-88
2022/05/01 03:05:58;;;;;;;0.30;0.30;;;7.40;99.90;;;;;;4990549;28;20189;-88
2022/05/01 03:08:24;;;;;;;0.20;0.20;;;7.50;99.90;;;;;;4991216;28;20212;-88
2022/05/01 03:10:50;;;;;;;0.20;0.20;;;7.50;99.90;;;;;;4988675;28;20447;-87
2022/05/01 03:13:17;;;;;;;0.30;0.30;;;7.50;99.90;;;;;;4988476;28;20280;-88
2022/05/01 03:15:42;;;;;;;0.20;0.20;;;7.40;99.90;;;;;;4984924;28;20201;-87
2022/05/01 03:23:36;;;;;;;0.20;0.20;;;7.40;99.90;;;;;;4987085;28;20451;-87
2022/05/01 03:26:02;;;;;;;0.30;0.30;;;7.40;99.90;;;;;;4991454;28;20451;-86
2022/05/01 03:28:28;;;;;;;0.20;0.20;;;7.40;99.90;;;;;;4978352;28;20286;-87
2022/05/01 03:30:54;;;;;;;0.30;0.30;;;7.40;99.90;;;;;;4984524;28;20436;-86
2022/05/01 03:33:22;;;;;;;0.30;0.30;;;7.40;99.90;;;;;;4991222;28;20185;-87
2022/05/01 03:35:49;;;;;;;0.30;0.30;;;7.40;99.90;;;;;;4983935;28;20724;-88
2022/05/01 03:38:15;;;;;;;0.30;0.30;;;7.50;99.90;;;;;;4993756;28;20455;-87
2022/05/01 03:40:42;;;;;;;0.30;0.30;;;7.40;99.90;;;;;;4991244;28;20452;-87
2022/05/01 03:43:07;;;;;;;0.20;0.20;;;7.30;99.90;;;;;;4989655;28;20459;-87
2022/05/01 03:45:33;;;;;;;0.23;0.23;;;7.40;99.90;;;;;;4984722;28;20462;-87
2022/05/01 03:47:59;;;;;;;0.30;0.30;;;7.50;99.90;;;;;;4989596;28;20229;-88
2022/05/01 03:50:24;;;;;;;0.20;0.20;;;7.50;99.90;;;;;;4990689;28;20271;-88
2022/05/01 03:52:51;;;;;;;0.23;0.23;;;7.50;99.90;;;;;;4992877;28;20968;-86
2022/05/01 03:55:16;;;;;;;0.20;0.20;;;7.50;99.90;;;;;;4989238;28;20186;-87
2022/05/01 03:57:42;;;;;;;0.20;0.20;;;7.40;99.90;;;;;;4986614;28;20447;-88
2022/05/01 04:00:11;;;;;;;0.30;0.30;;;7.30;99.90;;;;;;4985967;28;20184;-88
2022/05/01 04:02:43;;;;;;;0.30;0.30;;;7.50;99.90;;;;;;4974027;28;20190;-88
2022/05/01 04:05:09;;;;;;;0.30;0.30;;;7.50;99.90;;;;;;4987440;28;20440;-87
2022/05/01 04:07:35;;;;;;;0.27;0.27;;;7.50;99.90;;;;;;4978886;28;20433;-86
2022/05/01 04:10:00;;;;;;;0.20;0.20;;;7.40;99.90;;;;;;4986057;28;20499;-88
2022/05/01 04:12:26;;;;;;;0.30;0.30;;;7.50;99.90;;;;;;4988910;28;20193;-86
2022/05/01 04:14:51;;;;;;;0.30;0.30;;;7.50;99.90;;;;;;4987871;28;20223;-86
2022/05/01 04:17:17;;;;;;;0.30;0.30;;;7.50;99.90;;;;;;4976318;28;20192;-86
2022/05/01 04:19:42;;;;;;;0.30;0.30;;;7.50;99.90;;;;;;4989634;28;20239;-87
2022/05/01 04:22:08;;;;;;;0.30;0.30;;;7.50;99.90;;;;;;4990663;28;20200;-87
2022/05/01 04:24:33;;;;;;;0.30;0.30;;;7.50;99.90;;;;;;4992000;28;20294;-86
2022/05/01 04:26:59;;;;;;;0.30;0.30;;;7.60;99.90;;;;;;4985238;28;20196;-87
2022/05/01 04:29:36;;;;;;;0.30;0.30;;;7.50;99.90;;;;;;4988455;28;20735;-87
2022/05/01 04:32:04;;;;;;;0.20;0.20;;;7.50;99.90;;;;;;4985229;28;20661;-87
2022/05/01 04:34:29;;;;;;;0.30;0.30;;;7.50;99.90;;;;;;4978010;28;20980;-87
2022/05/01 04:36:55;;;;;;;0.20;0.20;;;7.60;99.90;;;;;;4978928;28;20445;-87
2022/05/01 04:39:20;;;;;;;0.30;0.30;;;7.50;99.90;;;;;;4984714;28;20268;-87
2022/05/01 04:41:46;;;;;;;0.40;0.40;;;7.50;99.90;;;;;;4989200;28;20682;-86
2022/05/01 04:44:11;;;;;;;0.20;0.20;;;7.60;99.90;;;;;;4980900;28;20605;-87
2022/05/01 04:46:37;;;;;;;0.20;0.20;;;7.60;99.90;;;;;;4987071;28;20193;-87
2022/05/01 04:49:03;;;;;;;0.30;0.30;;;7.60;99.90;;;;;;5007003;28;20217;-87
2022/05/01 04:51:28;;;;;;;0.30;0.30;;;7.60;99.90;;;;;;4957430;28;1058323;-87
2022/05/01 04:53:54;;;;;;;0.20;0.20;;;7.60;99.90;;;;;;4989400;28;20537;-87
2022/05/01 04:59:07;;;;;;;0.30;0.30;;;7.60;99.90;;;;;;4983533;28;20240;-88
2022/05/01 05:01:35;;;;;;;0.40;0.40;;;7.70;99.90;;;;;;4980034;28;20445;-88
2022/05/01 05:04:00;;;;;;;0.30;0.30;;;7.70;99.90;;;;;;4984512;28;20968;-87
2022/05/01 05:06:26;;;;;;;0.30;0.30;;;7.80;99.90;;;;;;4985465;28;20476;-87
2022/05/01 05:11:46;;;;;;;0.20;0.20;;;7.80;99.90;;;;;;4955425;28;20194;-89
2022/05/01 05:14:12;;;;;;;0.20;0.20;;;7.70;99.90;;;;;;4986146;28;20440;-88
2022/05/01 05:16:37;;;;;;;0.30;0.30;;;7.80;99.90;;;;;;4988486;28;20575;-86
2022/05/01 05:19:03;;;;;;;0.30;0.30;;;7.90;99.90;;;;;;4989667;28;20193;-87
2022/05/01 05:21:28;;;;;;;0.20;0.20;;;7.90;99.90;;;;;;4990221;28;20189;-89
2022/05/01 05:23:57;;;;;;;0.20;0.20;;;8.10;99.90;;;;;;4987882;28;20194;-89
2022/05/01 05:26:23;;;;;;;0.30;0.30;;;7.90;99.90;;;;;;4991541;28;20181;-87
2022/05/01 05:28:49;;;;;;;0.30;0.30;;;8.00;99.90;;;;;;4991704;28;20494;-88
2022/05/01 05:31:14;;;;;;;0.20;0.20;;;8.10;99.90;;;;;;4997841;28;20685;-89
2022/05/01 05:33:40;;;;;;;0.30;0.30;;;8.00;99.90;;;;;;4983627;28;20493;-88
2022/05/01 05:36:06;;;;;;;0.20;0.20;;;8.10;99.90;;;;;;4993105;28;20205;-90
2022/05/01 05:38:33;;;;;;;0.20;0.20;;;8.10;99.90;;;;;;4982540;28;20189;-87
2022/05/01 05:40:59;;;;;;;0.20;0.20;;;8.20;99.90;;;;;;4988193;28;21031;-88
2022/05/01 05:43:24;;;;;;;0.20;0.20;;;8.30;99.90;;;;;;4990824;28;20519;-86
2022/05/01 05:45:50;;;;;;;0.20;0.20;;;8.40;99.90;;;;;;4988843;28;20193;-86
2022/05/01 05:48:16;;;;;;;0.30;0.30;;;8.30;99.90;;;;;;4983265;28;20294;-88
2022/05/01 05:50:41;;;;;;;0.20;0.20;;;8.40;99.90;;;;;;4979041;28;20492;-87
2022/05/01 05:53:08;;;;;;;0.20;0.20;;;8.40;99.90;;;;;;4989543;28;20178;-87
2022/05/01 05:55:33;;;;;;;0.20;0.20;;;8.40;99.90;;;;;;4979252;28;20277;-86
2022/05/01 05:58:00;;;;;;;0.20;0.20;;;8.40;99.90;;;;;;4990134;28;20539;-87
2022/05/01 06:00:27;;;;;;;0.20;0.20;;;8.30;99.90;;;;;;4985508;28;20255;-89
2022/05/01 06:02:53;;;;;;;0.30;0.30;;;8.10;99.90;;;;;;4985075;28;20801;-87
2022/05/01 06:05:18;;;;;;;0.20;0.20;;;8.30;99.90;;;;;;4982087;28;20457;-87
2022/05/01 06:07:44;;;;;;;0.20;0.20;;;8.30;99.90;;;;;;4984035;28;20184;-87
2022/05/01 06:10:09;;;;;;;0.20;0.20;;;8.30;99.90;;;;;;4986666;28;20220;-87
2022/05/01 06:12:42;;;;;;;0.20;0.20;;;8.30;99.90;;;;;;4989984;28;20227;-87
2022/05/01 06:15:08;;;;;;;0.20;0.20;;;8.20;99.90;;;;;;4989698;28;20276;-87
2022/05/01 06:17:33;;;;;;;0.20;0.20;;;8.20;99.90;;;;;;4991905;28;20428;-86
2022/05/01 06:19:59;;;;;;;0.30;0.30;;;8.10;99.90;;;;;;4989168;28;20983;-85
2022/05/01 06:22:24;;;;;;;0.20;0.20;;;8.10;99.90;;;;;;4990116;28;20247;-88
2022/05/01 06:24:50;;;;;;;0.20;0.20;;;8.40;99.90;;;;;;4988799;28;20699;-87
2022/05/01 06:27:15;;;;;;;0.20;0.20;;;8.60;99.90;;;;;;4990249;28;20196;-87
2022/05/01 06:29:41;;;;;;;0.20;0.20;;;8.50;99.90;;;;;;4983163;28;20232;-87
2022/05/01 06:32:08;;;;;;;0.20;0.20;;;8.50;99.90;;;;;;4985823;28;20645;-87
2022/05/01 06:34:35;;;;;;;0.20;0.20;;;8.40;99.90;;;;;;4988543;28;20219;-88
2022/05/01 06:37:00;;;;;;;0.30;0.30;;;8.50;99.90;;;;;;4987501;28;20447;-90
2022/05/01 06:39:26;;;;;;;0.20;0.20;;;8.60;99.90;;;;;;4989338;28;20455;-92
2022/05/01 06:41:53;;;;;;;0.30;0.30;;;8.60;99.90;;;;;;4989208;28;20188;-91
2022/05/01 06:44:18;;;;;;;0.20;0.20;;;8.70;99.90;;;;;;4982366;28;20232;-91
2022/05/01 06:46:44;;;;;;;0.20;0.20;;;8.80;99.90;;;;;;4991367;28;20940;-90
2022/05/01 06:49:09;;;;;;;0.20;0.20;;;9.00;99.90;;;;;;4990365;28;20260;-89
2022/05/01 06:51:35;;;;;;;0.20;0.20;;;9.00;99.90;;;;;;4982698;28;20256;-87
2022/05/01 06:54:02;;;;;;;0.20;0.20;;;9.00;99.90;;;;;;4985236;28;20189;-87
2022/05/01 06:56:28;;;;;;;0.20;0.20;;;8.90;99.90;;;;;;4983412;28;20189;-87
2022/05/01 06:58:53;;;;;;;0.20;0.20;;;8.90;99.90;;;;;;4984383;28;20447;-86
2022/05/01 07:01:18;;;;;;;0.20;0.20;;;9.10;99.90;;;;;;4987603;28;20284;-86
2022/05/01 07:03:46;;;;;;;0.20;0.20;;;9.40;99.90;;;;;;4985334;28;20243;-86
2022/05/01 07:06:12;;;;;;;0.20;0.20;;;9.80;99.90;;;;;;4989617;28;20711;-88
2022/05/01 07:08:37;;;;;;;0.20;0.20;;;10.00;99.90;;;;;;4988221;28;20495;-88
2022/05/01 07:11:03;;;;;;;0.20;0.20;;;9.80;99.90;;;;;;4985633;28;20192;-87
2022/05/01 07:13:28;;;;;;;0.20;0.20;;;9.90;99.90;;;;;;4988732;28;20196;-87
2022/05/01 07:15:54;;;;;;;0.20;0.20;;;10.00;99.90;;;;;;4985206;28;20641;-87
2022/05/01 07:18:19;;;;;;;0.20;0.20;;;10.00;99.90;;;;;;4981525;28;20231;-86
2022/05/01 07:20:47;;;;;;;0.20;0.20;;;9.80;99.90;;;;;;4983242;28;20196;-86
2022/05/01 07:23:12;;;;;;;0.20;0.20;;;9.90;99.90;;;;;;4979027;28;20189;-85
2022/05/01 07:25:38;;;;;;;0.10;0.10;;;10.00;99.90;;;;;;4980572;28;20543;-85
2022/05/01 07:28:03;;;;;;;0.20;0.20;;;10.10;99.90;;;;;;4983799;28;20272;-85
2022/05/01 07:30:29;;;;;;;0.20;0.20;;;10.10;99.90;;;;;;4976902;28;20201;-83
2022/05/01 07:32:54;;;;;;;0.20;0.20;;;10.30;99.90;;;;;;4980899;28;20189;-84
2022/05/01 07:35:20;;;;;;;0.20;0.20;;;10.30;99.90;;;;;;4982782;28;20275;-85
2022/05/01 07:37:46;;;;;;;0.20;0.20;;;10.40;99.90;;;;;;4987728;28;20658;-86
2022/05/01 07:40:12;;;;;;;0.13;0.13;;;10.10;99.90;;;;;;4980634;28;20204;-83
2022/05/01 07:42:37;;;;;;;0.20;0.20;;;9.90;99.90;;;;;;4987341;28;20185;-84
2022/05/01 07:45:04;;;;;;;0.20;0.20;;;10.20;99.90;;;;;;4989397;28;20480;-84
2022/05/01 07:47:29;;;;;;;0.20;0.20;;;10.40;99.90;;;;;;4988545;28;20189;-87
2022/05/01 07:49:54;;;;;;;0.20;0.20;;;10.60;99.90;;;;;;4987094;28;20488;-85
2022/05/01 07:52:20;;;;;;;0.20;0.20;;;10.30;99.90;;;;;;4973326;28;20190;-85
2022/05/01 07:54:46;;;;;;;0.20;0.20;;;10.20;99.90;;;;;;4975145;28;20185;-85
2022/05/01 07:57:11;;;;;;;0.20;0.20;;;10.70;99.90;;;;;;4983856;28;20185;-87
2022/05/01 07:59:37;;;;;;;0.20;0.20;;;10.90;99.90;;;;;;4989637;28;20177;-86
2022/05/01 08:02:03;;;;;;;0.20;0.20;;;10.80;99.90;;;;;;4988944;28;20204;-86
2022/05/01 08:04:28;;;;;;;0.20;0.20;;;10.70;99.90;;;;;;4986506;28;20185;-86
2022/05/01 08:06:59;;;;;;;0.10;0.10;;;10.80;99.90;;;;;;4987076;28;20193;-87
2022/05/01 08:09:25;;;;;;;0.20;0.20;;;11.30;99.90;;;;;;4987699;28;20348;-86
2022/05/01 08:11:51;;;;;;;0.20;0.20;;;11.40;99.90;;;;;;4979117;28;20449;-86
2022/05/01 08:14:18;;;;;;;0.20;0.20;;;11.60;99.90;;;;;;4978354;28;20447;-86
2022/05/01 08:16:43;;;;;;;0.20;0.20;;;11.50;99.90;;;;;;4979151;28;20440;-86
2022/05/01 08:21:53;;;;;;;0.10;0.10;;;11.90;99.90;;;;;;4992777;28;20740;-86
2022/05/01 08:24:19;;;;;;;0.20;0.20;;;11.60;99.90;;;;;;4982009;28;20443;-86
2022/05/01 08:26:48;;;;;;;0.20;0.20;;;11.50;99.90;;;;;;4984582;28;20255;-86
2022/05/01 08:29:15;;;;;;;0.13;0.13;;;11.80;99.90;;;;;;4974419;28;20555;-86
2022/05/01 08:31:45;;;;;;;0.10;0.10;;;11.90;99.90;;;;;;4992364;28;21269;-86
2022/05/01 08:34:10;;;;;;;0.20;0.20;;;12.10;99.90;;;;;;4987826;28;21000;-87
2022/05/01 08:36:37;;;;;;;0.20;0.20;;;12.80;99.90;;;;;;4972841;28;20575;-85
2022/05/01 08:39:03;;;;;;;0.10;0.10;;;12.90;99.90;;;;;;4977240;28;20197;-87
2022/05/01 08:41:31;;;;;;;0.10;0.10;;;13.20;99.90;;;;;;4985930;28;20449;-87
2022/05/01 08:43:57;;;;;;;0.20;0.20;;;13.70;99.90;;;;;;4977469;28;20496;-86
2022/05/01 08:46:45;;;;;;;0.10;0.10;;;14.10;99.90;;;;;;4986333;28;20435;-86
2022/05/01 08:49:16;;;;;;;0.10;0.10;;;14.40;99.90;;;;;;4986116;28;20576;-87
2022/05/01 08:51:42;;;;;;;0.10;0.10;;;14.70;99.90;;;;;;4973839;28;20465;-86
2022/05/01 08:54:12;;;;;;;0.10;0.10;;;14.90;99.90;;;;;;4990153;28;20455;-87
2022/05/01 08:56:42;;;;;;;0.10;0.10;;;14.90;99.90;;;;;;4993033;28;20507;-88
2022/05/01 08:59:14;;;;;;;0.10;0.10;;;15.30;99.90;;;;;;4990006;28;20440;-85
2022/05/01 09:01:41;;;;;;;0.10;0.10;;;14.70;99.90;;;;;;4990089;28;20454;-88
2022/05/01 09:04:09;;;;;;;0.10;0.10;;;14.60;99.90;;;;;;4989720;28;20995;-84
2022/05/01 09:06:37;;;;;;;0.10;0.10;;;14.70;99.90;;;;;;4983410;28;20928;-85
2022/05/01 09:09:07;;;;;;;0.10;0.10;;;14.60;99.90;;;;;;4993705;28;20567;-90
2022/05/01 09:14:23;;;;;;;0.10;0.10;;;14.80;99.90;;;;;;4987519;28;20459;-85
2022/05/01 09:17:27;;;;;;;0.10;0.10;;;14.00;99.90;;;;;;4988905;28;20762;-85
2022/05/01 09:20:04;;;;;;;0.00;0.00;;;13.70;99.90;;;;;;4984124;28;20480;-84
2022/05/01 09:22:57;;;;;;;0.00;0.00;;;13.80;99.90;;;;;;4992759;28;20420;-84
2022/05/01 09:25:28;;;;;;;0.00;0.00;;;13.70;99.90;;;;;;4990771;28;20443;-89
2022/05/01 09:27:59;;;;;;;0.00;0.00;;;13.70;99.90;;;;;;4986779;28;20449;-85
2022/05/01 09:30:36;;;;;;;0.00;0.00;;;14.30;99.90;;;;;;4986801;28;20494;-86
2022/05/01 09:33:02;;;;;;;0.00;0.00;;;14.60;99.90;;;;;;4984588;28;20955;-89
2022/05/01 09:35:33;;;;;;;0.00;0.00;;;15.00;99.90;;;;;;4985001;28;20444;-90
2022/05/01 09:38:22;;;;;;;0.00;0.00;;;14.50;99.90;;;;;;4988839;28;20440;-87
2022/05/01 09:40:55;;;;;;;0.00;0.00;;;14.70;99.90;;;;;;4982635;28;20968;-91
2022/05/01 09:43:38;;;;;;;0.00;0.00;;;15.00;99.90;;;;;;4992491;28;20443;-89
2022/05/01 09:46:15;;;;;;;0.00;0.00;;;15.00;99.90;;;;;;4988905;28;20483;-86
2022/05/01 09:48:44;;;;;;;0.00;0.00;;;15.40;99.90;;;;;;4987969;28;20475;-86
2022/05/01 09:51:19;;;;;;;0.00;0.00;;;16.00;99.90;;;;;;4985673;28;20480;-87
2022/05/01 09:53:45;;;;;;;0.00;0.00;;;16.40;99.90;;;;;;4989080;28;20546;-87
2022/05/01 09:56:11;;;;;;;0.00;0.00;;;16.40;99.90;;;;;;4979638;28;20424;-86
2022/05/01 09:58:40;;;;;;;0.00;0.00;;;16.50;99.90;;;;;;4984823;28;20522;-87
2022/05/01 10:01:16;;;;;;;0.00;0.00;;;16.50;99.90;;;;;;4986330;28;20811;-87
2022/05/01 10:03:46;;;;;;;0.00;0.00;;;16.60;99.90;;;;;;4985263;28;20449;-86
2022/05/01 10:06:16;;;;;;;0.00;0.00;;;16.30;99.90;;;;;;4989558;28;20447;-86
2022/05/01 10:08:44;;;;;;;0.00;0.00;;;16.60;99.90;;;;;;4988638;28;21293;-86
2022/05/01 10:11:14;;;;;;;0.00;0.00;;;15.60;99.90;;;;;;4990126;28;20975;-86
2022/05/01 10:13:40;;;;;;;0.00;0.00;;;16.70;99.90;;;;;;4989188;28;20550;-84
2022/05/01 10:16:09;;;;;;;0.00;0.00;;;17.20;99.90;;;;;;4989552;28;20522;-83
2022/05/01 10:18:36;;;;;;;0.00;0.00;;;17.30;99.90;;;;;;4984872;28;20929;-83
2022/05/01 10:21:02;;;;;;;0.00;0.00;;;16.90;95.40;;;;;;4978779;28;20448;-85
2022/05/01 10:23:29;;;;;;;0.00;0.00;;;16.90;99.90;;;;;;4984375;28;20442;-86
2022/05/01 10:26:01;;;;;;;0.00;0.00;;;17.60;97.70;;;;;;4983095;28;20502;-85
2022/05/01 10:28:58;;;;;;;0.00;0.00;;;16.30;96.50;;;;;;4979335;28;20968;-83
2022/05/01 10:35:02;;;;;;;0.00;0.00;;;15.40;92.40;;;;;;4984788;28;20455;-83
2022/05/01 10:38:00;;;;;;;0.00;0.00;;;15.90;95.10;;;;;;4978745;28;20444;-88
2022/05/01 10:40:32;;;;;;;0.00;0.00;;;16.90;95.50;;;;;;4985068;28;20440;-86
2022/05/01 10:43:02;;;;;;;0.00;0.00;;;18.10;88.70;;;;;;4983109;28;20810;-89
2022/05/01 10:45:27;;;;;;;0.00;0.00;;;18.10;88.10;;;;;;4989359;28;20506;-90
2022/05/01 10:47:54;;;;;;;0.00;0.00;;;17.10;86.50;;;;;;4989806;28;20449;-87
2022/05/01 10:50:29;;;;;;;0.00;0.00;;;16.40;87.90;;;;;;4974714;28;20245;-87
2022/05/01 10:53:08;;;;;;;0.00;0.00;;;16.60;89.50;;;;;;4979032;28;20967;-86
2022/05/01 10:55:44;;;;;;;0.00;0.00;;;16.40;90.90;;;;;;4986464;28;20510;-84
2022/05/01 10:58:19;;;;;;;0.00;0.00;;;16.70;93.70;;;;;;4982035;28;20446;-85
2022/05/01 11:00:46;;;;;;;0.00;0.00;;;17.50;92.60;;;;;;4983970;28;20979;-92
2022/05/01 11:03:50;;;;;;;0.00;0.00;;;17.40;92.80;;;;;;4986060;28;20441;-87
2022/05/01 11:06:20;;;;;;;0.00;0.00;;;17.60;92.80;;;;;;4965107;28;20489;-89
2022/05/01 11:08:46;;;;;;;0.00;0.00;;;17.20;92.30;;;;;;4982419;28;20484;-82
2022/05/01 11:11:12;;;;;;;0.00;0.00;;;16.70;93.60;;;;;;4987243;28;20458;-85
2022/05/01 11:13:40;;;;;;;0.00;0.00;;;17.10;91.00;;;;;;4987673;28;20448;-86
2022/05/01 11:16:07;;;;;;;0.00;0.00;;;18.00;90.90;;;;;;4984934;28;20462;-87
2022/05/01 11:18:41;;;;;;;0.00;0.00;;;17.40;84.00;;;;;;4982383;28;20590;-85
2022/05/01 11:21:19;;;;;;;0.00;0.00;;;18.10;88.90;;;;;;4989160;28;20578;-88
2022/05/01 11:23:45;;;;;;;0.00;0.00;;;19.30;90.50;;;;;;4985758;28;20460;-87
2022/05/01 11:26:13;;;;;;;0.00;0.00;;;19.40;81.20;;;;;;4984625;28;20453;-86
2022/05/01 11:28:49;;;;;;;0.00;0.00;;;19.70;82.80;;;;;;4987122;28;20527;-86
2022/05/01 11:31:35;;;;;;;0.00;0.00;;;19.80;86.00;;;;;;4984656;28;20447;-86
2022/05/01 11:34:35;;;;;;;0.00;0.00;;;19.30;84.30;;;;;;4984231;28;20463;-86
2022/05/01 11:37:06;;;;;;;0.00;0.00;;;18.30;92.00;;;;;;4939379;28;20494;-87
2022/05/01 11:39:50;;;;;;;0.00;0.00;;;17.70;97.00;;;;;;4982630;28;20455;-87
2022/05/01 11:42:24;;;;;;;0.00;0.00;;;18.30;98.50;;;;;;4983644;28;21019;-87
2022/05/01 11:44:50;;;;;;;0.00;0.00;;;18.20;97.80;;;;;;4983907;28;20579;-88
2022/05/01 11:47:18;;;;;;;0.00;0.00;;;18.50;98.60;;;;;;4979534;28;20471;-88
2022/05/01 11:49:45;;;;;;;0.00;0.00;;;17.80;98.90;;;;;;4982899;28;20489;-88
2022/05/01 11:52:11;;;;;;;0.00;0.00;;;17.20;97.60;;;;;;4984439;28;20475;-88
2022/05/01 11:54:40;;;;;;;0.00;0.00;;;17.10;99.60;;;;;;4990006;28;20486;-88
2022/05/01 12:02:38;;;;;;;0.00;0.00;;;16.70;99.90;;;;;;4990612;28;21259;-87
2022/05/01 12:05:05;;;;;;;0.00;0.00;;;16.00;98.40;;;;;;4989175;28;20444;-88
2022/05/01 12:07:31;;;;;;;0.00;0.00;;;15.90;99.20;;;;;;4988760;28;20193;-87
2022/05/01 12:09:57;;;;;;;0.00;0.00;;;15.70;99.70;;;;;;4985948;28;20489;-88
2022/05/01 12:12:29;;;;;;;0.00;0.00;;;15.60;99.90;;;;;;4985391;28;20482;-89
2022/05/01 12:14:56;;;;;;;0.00;0.00;;;15.70;99.90;;;;;;4984374;28;20530;-88
2022/05/01 12:17:22;;;;;;;0.00;0.00;;;16.00;99.90;;;;;;4989850;28;20454;-89
2022/05/01 12:19:49;;;;;;;0.00;0.00;;;15.90;99.90;;;;;;4987763;28;20811;-88
2022/05/01 12:22:20;;;;;;;0.00;0.00;;;16.40;98.80;;;;;;4989446;28;20177;-88
2022/05/01 12:24:47;;;;;;;0.00;0.00;;;17.40;98.90;;;;;;4986948;28;20517;-87
2022/05/01 12:27:15;;;;;;;0.00;0.00;;;18.50;96.00;;;;;;4988366;28;20451;-86
2022/05/01 12:29:53;;;;;;;0.00;0.00;;;19.80;95.60;;;;;;4988441;28;20525;-89
2022/05/01 12:32:18;;;;;;;0.00;0.00;;;19.80;93.10;;;;;;4998814;28;21047;-84
2022/05/01 12:34:44;;;;;;;0.00;0.00;;;19.40;92.80;;;;;;4982732;28;20448;-85
2022/05/01 12:37:12;;;;;;;0.00;0.00;;;18.80;93.00;;;;;;4983687;28;20193;-85
2022/05/01 12:39:37;;;;;;;0.00;0.00;;;17.90;91.80;;;;;;4983329;28;20193;-88
2022/05/01 12:45:10;;;;;;;0.00;0.00;;;17.90;93.40;;;;;;4983290;28;20782;-87
2022/05/01 12:47:43;;;;;;;0.00;0.00;;;17.20;93.20;;;;;;4981803;28;20531;-86
2022/05/01 12:50:29;;;;;;;0.00;0.00;;;16.60;93.40;;;;;;4994167;28;20576;-93
2022/05/01 12:52:58;;;;;;;0.00;0.00;;;16.30;93.90;;;;;;5000006;28;20455;-90
2022/05/01 12:55:32;;;;;;;0.00;0.00;;;16.20;94.40;;;;;;4982945;28;20467;-87
2022/05/01 12:58:03;;;;;;;0.00;0.00;;;15.90;94.10;;;;;;4984201;28;20440;-92
2022/05/01 13:00:41;;;;;;;0.00;0.00;;;15.70;95.10;;;;;;4985973;28;20448;-93
2022/05/01 13:03:37;;;;;;;0.00;0.00;;;15.30;92.80;;;;;;4984850;28;20474;-94
2022/05/01 13:06:15;;;;;;;0.00;0.00;;;15.40;93.50;;;;;;4975325;28;20425;-94
2022/05/01 13:08:48;;;;;;;0.00;0.00;;;15.70;95.20;;;;;;4990293;28;20502;-93
2022/05/01 13:11:15;;;;;;;0.00;0.00;;;15.50;93.00;;;;;;4989819;28;20952;-90
2022/05/01 13:13:46;;;;;;;0.00;0.00;;;15.40;94.00;;;;;;4983138;28;20568;-90
2022/05/01 13:16:12;;;;;;;0.00;0.00;;;15.50;94.90;;;;;;4988307;28;20982;-92
2022/05/01 13:18:38;;;;;;;0.00;0.00;;;15.60;95.20;;;;;;4976796;28;20529;-86
2022/05/01 13:21:03;;;;;;;0.00;0.00;;;15.60;94.90;;;;;;4980859;28;20531;-87
2022/05/01 13:23:29;;;;;;;0.00;0.00;;;15.70;94.60;;;;;;4987292;28;20537;-88
2022/05/01 13:25:55;;;;;;;0.00;0.00;;;15.60;94.50;;;;;;4982233;28;20193;-89
2022/05/01 13:28:21;;;;;;;0.00;0.00;;;15.40;93.40;;;;;;4979169;28;20186;-90
2022/05/01 13:30:46;;;;;;;0.00;0.00;;;15.10;94.00;;;;;;4984593;28;20201;-91
2022/05/01 13:33:12;;;;;;;0.00;0.00;;;14.90;94.30;;;;;;4987901;28;20831;-94
2022/05/01 13:35:38;;;;;;;0.00;0.00;;;15.00;95.20;;;;;;4988526;28;20275;-93
2022/05/01 13:38:04;;;;;;;0.00;0.00;;;14.80;94.40;;;;;;4988952;28;20448;-82